Sunday, October 22, 2017, 8:38 PM EDT
Back to Local

KBID, Block Island, Block Island State Airport

Location: Block Island, RI, United States Lat: 41.167
Local Time: 8:38 PM EDT ( 0:38 GMT) Lon: -71.567
Time Zone: US/Eastern Elev: 108 ft

Show me the last for .
Show Decoded

2017-10-22 19:56 METAR KBID 222356Z AUTO 21009KT 10SM CLR 16/15 A3039 RMK AO2 SLP296 T01610150
                 10211 20161 55000 =
2017-10-22 18:56 METAR KBID 222256Z AUTO 22007KT 10SM CLR 17/15 A3039 RMK AO2 SLP295 T01670150 =
2017-10-22 17:56 METAR KBID 222156Z AUTO 22008KT 10SM CLR 17/15 A3039 RMK AO2 SLP296 T01720150 =
2017-10-22 16:56 METAR KBID 222056Z AUTO 23011KT 10SM CLR 19/15 A3039 RMK AO2 SLP295 T01940150
                 55000 =
2017-10-22 15:56 METAR KBID 221956Z AUTO 23010KT 10SM CLR 20/16 A3039 RMK AO2 SLP294 T02000156 =
2017-10-22 14:56 METAR KBID 221856Z AUTO 23009KT 10SM CLR 21/15 A3039 RMK AO2 SLP294 T02060150 =
2017-10-22 13:56 METAR KBID 221756Z AUTO 24009KT 10SM CLR 22/15 A3039 RMK AO2 SLP295 6////
                 T02170150 10222 20150 57008 =
2017-10-22 12:56 METAR KBID 221656Z AUTO 22007KT 10SM CLR 22/14 A3040 RMK AO2 SLP298 T02170139 =
2017-10-22 11:56 METAR KBID 221556Z AUTO 25008KT 10SM CLR 21/13 A3041 RMK AO2 SLP300 T02110128 =
2017-10-22 10:56 METAR KBID 221456Z AUTO 26006KT 10SM CLR 21/15 A3042 RMK AO2 SLP303 6////
                 T02060150 50005 =
2017-10-22 09:56 METAR KBID 221356Z AUTO 26005KT 10SM CLR 19/16 A3043 RMK AO2 SLP307 T01890156 =
2017-10-22 08:56 METAR KBID 221256Z AUTO 27005KT 10SM CLR 18/15 A3042 RMK AO2 SLP304 T01780150 =
2017-10-22 07:56 METAR KBID 221156Z AUTO 24005KT 10SM CLR 15/14 A3040 RMK AO2 SLP298 7////
                 T01500144 10150 20128 53014 =
2017-10-22 06:56 METAR KBID 221056Z AUTO 23006KT 10SM CLR 14/14 A3038 RMK AO2 SLP291 T01440139 =
2017-10-22 05:56 METAR KBID 220956Z AUTO 25005KT 10SM CLR 14/13 A3037 RMK AO2 SLP289 T01440133 =
2017-10-22 04:56 METAR KBID 220856Z AUTO 23007KT 10SM CLR 14/13 A3036 RMK AO2 SLP284 T01390133
                 53000 =
2017-10-22 03:56 METAR KBID 220756Z AUTO 23005KT 10SM CLR 13/12 A3035 RMK AO2 SLP282 T01330122 =
2017-10-22 02:56 METAR KBID 220656Z AUTO 23006KT 10SM CLR 13/12 A3035 RMK AO2 SLP280 T01330122 =
2017-10-22 01:56 METAR KBID 220556Z AUTO 25007KT 10SM CLR 14/13 A3036 RMK AO2 SLP284 T01390128
                 10167 20139 53000 =
2017-10-22 00:56 METAR KBID 220456Z AUTO 24007KT 10SM CLR 15/13 A3036 RMK AO2 SLP283 T01500128 =
2017-10-21 23:56 METAR KBID 220356Z AUTO 25009KT 10SM CLR 16/13 A3035 RMK AO2 SLP282 T01560128
                 402060106 =
2017-10-21 22:56 METAR KBID 220256Z AUTO 26008KT 10SM CLR 16/14 A3036 RMK AO2 SLP283 T01610144
                 51005 =
2017-10-21 21:56 METAR KBID 220156Z AUTO 25008KT 10SM CLR 16/14 A3035 RMK AO2 SLP282 T01610139
                 TSNO =
2017-10-21 20:56 METAR KBID 220056Z AUTO 25011KT 10SM CLR 17/14 A3035 RMK AO2 SLP280 T01670144 =

Support USWX by starting your Amazon purchase here.